Terminal Aerodrome Forecast
Issued by NWS

Home | Current Version | Previous Version | Graphics & Text | Print | Product List | Glossary On
Versions: 1 2 3 4 5 6 7 8 9 10 11 12 13 14 15 16 17 18 19 20 21 22 23 24
303
FTUS43 KUNR 140120 AAA
TAFGCC
TAF AMD
KGCC 140120Z 1401/1424 29013KT P6SM SCT120
     FM141700 30015G25KT P6SM BKN035=

USA.gov is the U.S. government's official web portal to all federal, state and local government web resources and services.